createdAt,value
2019-03-04T00:01:32.619Z,16.64
2019-03-04T00:04:04.353Z,16.35
2019-03-04T00:06:36.007Z,16.46
2019-03-04T00:09:10.935Z,16.27
2019-03-04T00:11:43.254Z,16.43
2019-03-04T00:14:16.485Z,16.28
2019-03-04T00:16:48.062Z,16.28
2019-03-04T00:19:19.791Z,16.29
2019-03-04T00:21:51.756Z,16.21
2019-03-04T00:24:23.153Z,16.21
2019-03-04T00:26:54.908Z,16.15
2019-03-04T00:29:28.030Z,16.21
2019-03-04T00:31:59.511Z,16.14
2019-03-04T00:34:31.946Z,16.14
2019-03-04T00:37:05.079Z,16.19
2019-03-04T00:39:36.696Z,16.16
2019-03-04T00:42:08.233Z,16.08
2019-03-04T00:44:39.729Z,16.32
2019-03-04T00:47:11.325Z,16.32
2019-03-04T00:49:42.894Z,16.32
2019-03-04T00:52:14.575Z,16.41
2019-03-04T00:54:46.087Z,16.44
2019-03-04T00:57:19.116Z,16.40
2019-03-04T00:59:50.631Z,16.48
2019-03-04T01:02:22.257Z,16.48
2019-03-04T01:04:55.856Z,16.31
2019-03-04T01:07:27.480Z,16.20
2019-03-04T01:09:59.401Z,16.20
2019-03-04T01:12:30.737Z,16.31
2019-03-04T01:15:02.224Z,16.30
2019-03-04T01:17:34.195Z,16.30
2019-03-04T01:20:06.798Z,16.31
2019-03-04T01:22:38.533Z,16.30
2019-03-04T01:25:12.165Z,16.31
2019-03-04T01:27:43.702Z,16.36
2019-03-04T01:30:20.649Z,16.36
2019-03-04T01:32:52.702Z,15.89
2019-03-04T01:35:24.452Z,16.14
2019-03-04T01:37:56.112Z,16.11
2019-03-04T01:40:27.883Z,16.19
2019-03-04T01:42:59.364Z,16.19
2019-03-04T01:45:30.757Z,15.94
2019-03-04T01:48:02.049Z,15.82
2019-03-04T01:50:33.417Z,15.82
2019-03-04T01:53:05.397Z,15.76
2019-03-04T01:55:37.224Z,15.66
2019-03-04T01:58:08.404Z,15.66
2019-03-04T02:00:40.175Z,15.59
2019-03-04T02:03:11.977Z,15.65
2019-03-04T02:05:44.867Z,15.65
2019-03-04T02:08:16.723Z,18.54
2019-03-04T02:10:50.606Z,18.54
2019-03-04T02:13:22.147Z,18.75
2019-03-04T02:15:53.524Z,18.48
2019-03-04T02:18:25.218Z,18.16
2019-03-04T02:20:56.417Z,18.16
2019-03-04T02:23:27.898Z,17.95
2019-03-04T02:26:34.507Z,17.72
2019-03-04T02:29:06.658Z,18.02
2019-03-04T02:31:37.858Z,18.03
2019-03-04T02:34:09.209Z,18.03
2019-03-04T02:36:40.649Z,17.81
2019-03-04T02:39:12.293Z,17.99
2019-03-04T02:41:44.042Z,18.01
2019-03-04T02:44:19.625Z,18.17
2019-03-04T02:46:51.448Z,18.17
2019-03-04T02:49:25.035Z,18.08
2019-03-04T02:51:56.340Z,18.08
2019-03-04T02:54:27.843Z,17.98
2019-03-04T02:56:59.236Z,17.98
2019-03-04T02:59:30.826Z,17.84
2019-03-04T03:02:02.060Z,18.23
2019-03-04T03:04:34.605Z,18.23
2019-03-04T03:07:06.574Z,18.19
2019-03-04T03:09:38.168Z,18.20
2019-03-04T03:12:10.364Z,18.57
2019-03-04T03:14:42.288Z,18.37
2019-03-04T03:17:15.802Z,18.58
2019-03-04T03:19:47.358Z,18.61
2019-03-04T03:22:18.866Z,18.38
2019-03-04T03:24:50.529Z,18.38
2019-03-04T03:27:23.617Z,18.38
2019-03-04T03:29:56.749Z,18.21
2019-03-04T03:32:28.182Z,18.62
2019-03-04T03:34:59.885Z,18.62
2019-03-04T03:37:31.511Z,18.49
2019-03-04T03:40:03.412Z,18.57
2019-03-04T03:42:34.911Z,18.55
2019-03-04T03:45:07.286Z,18.81
2019-03-04T03:47:39.161Z,18.81
2019-03-04T03:50:12.410Z,18.73
2019-03-04T03:52:43.992Z,18.81
2019-03-04T03:55:16.175Z,18.89
2019-03-04T03:57:48.338Z,18.89
2019-03-04T04:00:20.348Z,18.81
2019-03-04T04:02:52.311Z,18.70
2019-03-04T04:05:24.248Z,18.79
2019-03-04T04:07:55.600Z,18.76
2019-03-04T04:10:27.486Z,18.76
2019-03-04T04:12:59.097Z,19.10
2019-03-04T04:15:31.116Z,18.99
2019-03-04T04:18:09.453Z,18.71
2019-03-04T04:20:41.447Z,18.97
2019-03-04T04:23:13.128Z,19.39
2019-03-04T04:25:45.028Z,19.45
2019-03-04T04:28:17.091Z,19.38
2019-03-04T04:30:48.820Z,19.38
2019-03-04T04:33:20.411Z,19.23
2019-03-04T04:35:52.739Z,19.23
2019-03-04T04:38:24.729Z,19.53
2019-03-04T04:40:56.816Z,19.53
2019-03-04T04:43:28.518Z,19.71
2019-03-04T04:46:00.215Z,19.71
2019-03-04T04:48:31.838Z,19.60
2019-03-04T04:51:03.231Z,19.60
2019-03-04T04:53:34.837Z,18.96
2019-03-04T04:56:10.731Z,19.66
2019-03-04T04:58:42.333Z,19.58
2019-03-04T05:01:14.067Z,19.71
2019-03-04T05:03:45.690Z,19.78
2019-03-04T05:06:17.422Z,19.78
2019-03-04T05:08:49.087Z,20.06
2019-03-04T05:11:20.920Z,20.19
2019-03-04T05:13:53.006Z,20.25
2019-03-04T05:16:25.195Z,20.25
2019-03-04T05:18:57.107Z,20.42
2019-03-04T05:21:30.546Z,20.42
2019-03-04T05:24:02.182Z,20.46
2019-03-04T05:26:33.595Z,20.63
2019-03-04T05:29:05.493Z,20.68
2019-03-04T05:31:37.285Z,20.86
2019-03-04T05:34:09.010Z,20.86
2019-03-04T05:36:41.188Z,20.74
2019-03-04T05:39:12.920Z,20.74
2019-03-04T05:41:44.594Z,20.74
2019-03-04T05:44:16.279Z,21.08
2019-03-04T05:46:47.844Z,21.08
2019-03-04T05:49:19.588Z,20.93
2019-03-04T05:51:51.221Z,20.93
2019-03-04T05:54:22.966Z,21.00
2019-03-04T05:56:54.487Z,21.01
2019-03-04T05:59:26.447Z,21.35
2019-03-04T06:02:05.968Z,21.41
2019-03-04T06:04:38.337Z,21.41
2019-03-04T06:07:28.533Z,21.51
2019-03-04T06:10:00.740Z,21.75
2019-03-04T06:12:32.582Z,22.10
2019-03-04T06:15:04.269Z,21.74
2019-03-04T06:17:35.651Z,21.74
2019-03-04T06:20:07.462Z,21.72
2019-03-04T06:22:38.973Z,21.92
2019-03-04T06:25:14.238Z,21.92
2019-03-04T06:27:45.790Z,21.96
2019-03-04T06:30:20.033Z,22.33
2019-03-04T06:32:51.944Z,22.14
2019-03-04T06:35:23.693Z,22.14
2019-03-04T06:37:55.460Z,22.67
2019-03-04T06:40:27.182Z,22.52
2019-03-04T06:42:59.028Z,22.31
2019-03-04T06:45:30.950Z,22.33
2019-03-04T06:48:02.632Z,22.41
2019-03-04T06:50:49.417Z,22.25
2019-03-04T06:53:40.047Z,22.57
2019-03-04T06:56:28.303Z,22.95
2019-03-04T06:59:06.500Z,22.95
2019-03-04T07:01:47.632Z,22.50
2019-03-04T07:04:30.710Z,22.54
2019-03-04T07:07:02.514Z,22.86
2019-03-04T07:09:34.139Z,22.86
2019-03-04T07:12:05.763Z,22.86
2019-03-04T07:14:38.179Z,22.86
2019-03-04T07:17:09.881Z,22.86
2019-03-04T07:19:42.375Z,22.90
2019-03-04T07:22:13.701Z,22.49
2019-03-04T07:24:45.341Z,22.49
2019-03-04T07:27:16.790Z,22.76
2019-03-04T07:29:48.194Z,22.71
2019-03-04T07:32:19.507Z,22.87
2019-03-04T07:34:51.282Z,22.92
2019-03-04T07:37:22.735Z,23.01
2019-03-04T07:39:54.540Z,23.01
2019-03-04T07:42:26.350Z,23.07
2019-03-04T07:44:58.151Z,22.91
2019-03-04T07:47:30.559Z,22.94
2019-03-04T07:50:02.204Z,22.94
2019-03-04T07:52:35.855Z,23.09
2019-03-04T07:55:07.725Z,23.21
2019-03-04T07:57:40.407Z,23.21
2019-03-04T08:00:13.677Z,23.29
2019-03-04T08:02:45.305Z,23.43
2019-03-04T08:05:16.841Z,23.40
2019-03-04T08:07:50.711Z,23.39
2019-03-04T08:11:17.753Z,23.39
2019-03-04T08:13:53.326Z,23.29
2019-03-04T08:16:24.942Z,23.58
2019-03-04T08:18:57.415Z,23.24
2019-03-04T08:21:29.827Z,23.35
2019-03-04T08:24:01.173Z,23.35
2019-03-04T08:26:32.705Z,23.79
2019-03-04T08:29:04.101Z,23.48
2019-03-04T08:31:35.966Z,23.37
2019-03-04T08:34:09.324Z,23.04
2019-03-04T08:36:41.633Z,23.04
2019-03-04T08:39:13.411Z,23.20
2019-03-04T08:41:44.772Z,23.51
2019-03-04T08:44:16.137Z,23.72
2019-03-04T08:46:47.396Z,23.61
2019-03-04T08:49:19.041Z,23.23
2019-03-04T08:51:51.369Z,23.22
2019-03-04T08:54:23.047Z,23.22
2019-03-04T08:57:03.595Z,23.22
2019-03-04T08:59:29.798Z,23.22
2019-03-04T09:02:01.427Z,23.34
2019-03-04T09:04:32.926Z,23.50
2019-03-04T09:07:04.817Z,23.55
2019-03-04T09:09:37.411Z,23.42
2019-03-04T09:12:08.764Z,23.75
2019-03-04T09:14:40.475Z,23.69
2019-03-04T09:17:12.210Z,23.53
2019-03-04T09:19:43.492Z,23.49
2019-03-04T09:22:15.511Z,23.81
2019-03-04T09:24:47.159Z,23.61
2019-03-04T09:27:18.787Z,23.61
2019-03-04T09:29:50.833Z,23.79
2019-03-04T09:32:22.242Z,23.53
2019-03-04T09:34:53.848Z,23.54
2019-03-04T09:37:25.579Z,23.39
2019-03-04T09:39:57.097Z,23.35
2019-03-04T09:42:29.140Z,23.60
2019-03-04T09:45:01.017Z,23.60
2019-03-04T09:47:32.991Z,23.71
2019-03-04T09:50:04.840Z,23.67
2019-03-04T09:52:36.569Z,23.67
2019-03-04T09:55:08.950Z,23.70
2019-03-04T09:57:40.970Z,23.70
2019-03-04T10:00:30.576Z,23.77
2019-03-04T10:03:22.456Z,23.47
2019-03-04T10:06:24.963Z,23.62
2019-03-04T10:09:07.930Z,23.62
2019-03-04T10:12:33.590Z,23.69
2019-03-04T10:15:15.228Z,23.70
2019-03-04T10:18:12.597Z,23.52
2019-03-04T10:21:33.912Z,23.52
2019-03-04T10:24:42.351Z,23.58
2019-03-04T10:28:10.300Z,23.58
2019-03-04T10:31:11.062Z,23.50
2019-03-04T10:34:20.496Z,23.52
2019-03-04T10:37:26.466Z,23.74
2019-03-04T10:40:40.794Z,23.74
2019-03-04T10:43:29.477Z,23.62
2019-03-04T10:46:23.710Z,23.68
2019-03-04T10:48:55.014Z,23.62
2019-03-04T10:51:26.276Z,23.61
2019-03-04T10:53:57.553Z,23.70
2019-03-04T10:56:29.302Z,23.62
2019-03-04T10:59:00.882Z,23.70
2019-03-04T11:01:32.453Z,23.57
2019-03-04T11:04:04.073Z,23.56
2019-03-04T11:06:35.956Z,23.60
2019-03-04T11:09:09.203Z,23.61
2019-03-04T11:11:41.967Z,23.62
2019-03-04T11:14:13.733Z,23.58
2019-03-04T11:16:46.244Z,23.54
2019-03-04T11:19:17.819Z,23.52
2019-03-04T11:21:49.752Z,23.56
2019-03-04T11:24:21.198Z,23.56
2019-03-04T11:26:53.204Z,23.60
2019-03-04T11:29:24.904Z,23.63
2019-03-04T11:31:56.946Z,23.48
2019-03-04T11:34:28.733Z,23.52
2019-03-04T11:37:00.751Z,23.51
2019-03-04T11:39:54.277Z,23.51
2019-03-04T11:42:26.306Z,23.49
2019-03-04T11:44:57.970Z,23.45
2019-03-04T11:47:29.686Z,23.44
2019-03-04T11:50:01.278Z,23.42
2019-03-04T11:52:33.550Z,23.46
2019-03-04T11:55:06.412Z,23.46
2019-03-04T11:57:38.582Z,23.46
2019-03-04T12:00:15.157Z,23.39
2019-03-04T12:02:47.217Z,23.44
2019-03-04T12:05:20.084Z,23.44
2019-03-04T12:07:52.213Z,23.30
2019-03-04T12:10:24.178Z,23.30
2019-03-04T12:12:55.891Z,23.24
2019-03-04T12:15:27.631Z,23.24
2019-03-04T12:17:59.567Z,23.17
2019-03-04T12:20:31.223Z,23.15
2019-03-04T12:23:02.976Z,23.15
2019-03-04T12:25:35.082Z,23.15
2019-03-04T12:28:06.582Z,23.18
2019-03-04T12:30:38.305Z,23.16
2019-03-04T12:33:11.070Z,23.04
2019-03-04T12:35:42.783Z,22.98
2019-03-04T12:38:14.313Z,22.94
2019-03-04T12:40:46.164Z,23.01
2019-03-04T12:43:17.865Z,22.98
2019-03-04T12:45:51.175Z,22.98
2019-03-04T12:48:23.127Z,22.71
2019-03-04T12:50:54.951Z,22.66
2019-03-04T12:53:26.485Z,22.66
2019-03-04T12:55:58.548Z,22.84
2019-03-04T12:58:30.018Z,22.86
2019-03-04T13:01:02.353Z,22.64
2019-03-04T13:03:33.969Z,22.72
2019-03-04T13:06:08.104Z,22.63
2019-03-04T13:08:40.156Z,22.69
2019-03-04T13:11:12.925Z,22.80
2019-03-04T13:13:44.472Z,22.76
2019-03-04T13:16:16.567Z,22.76
2019-03-04T13:18:48.173Z,22.79
2019-03-04T13:21:20.375Z,22.85
2019-03-04T13:23:52.203Z,22.85
2019-03-04T13:26:24.176Z,22.76
2019-03-04T13:28:55.678Z,22.61
2019-03-04T13:31:27.337Z,22.78
2019-03-04T13:33:59.396Z,22.47
2019-03-04T13:36:31.147Z,22.62
2019-03-04T13:39:02.649Z,22.45
2019-03-04T13:41:38.464Z,22.27
2019-03-04T13:44:10.145Z,22.08
2019-03-04T13:46:41.947Z,22.04
2019-03-04T13:49:15.354Z,22.04
2019-03-04T13:51:47.327Z,22.10
2019-03-04T13:54:19.814Z,22.09
2019-03-04T13:56:51.640Z,22.05
2019-03-04T13:59:23.458Z,22.04
2019-03-04T14:01:55.108Z,21.96
2019-03-04T14:04:26.365Z,21.94
2019-03-04T14:06:58.111Z,21.91
2019-03-04T14:09:29.801Z,21.92
2019-03-04T14:12:01.730Z,21.89
2019-03-04T14:14:35.757Z,21.88
2019-03-04T14:17:07.776Z,21.86
2019-03-04T14:19:39.644Z,21.95
2019-03-04T14:22:11.326Z,21.97
2019-03-04T14:24:43.121Z,21.99
2019-03-04T14:27:16.537Z,21.83
2019-03-04T14:29:48.306Z,21.80
2019-03-04T14:32:20.147Z,21.68
2019-03-04T14:34:51.635Z,21.68
2019-03-04T14:37:23.155Z,21.58
2019-03-04T14:39:54.834Z,21.29
2019-03-04T14:42:26.592Z,21.29
2019-03-04T14:44:59.159Z,21.28
2019-03-04T14:47:31.094Z,21.28
2019-03-04T14:50:09.537Z,21.04
2019-03-04T14:52:36.099Z,21.20
2019-03-04T14:55:09.342Z,21.01
2019-03-04T14:57:41.078Z,21.01
2019-03-04T15:00:25.314Z,21.15
2019-03-04T15:02:57.566Z,21.17
2019-03-04T15:05:29.511Z,21.02
2019-03-04T15:08:01.841Z,20.87
2019-03-04T15:10:33.772Z,20.74
2019-03-04T15:13:05.651Z,20.90
2019-03-04T15:15:37.274Z,20.97
2019-03-04T15:18:09.332Z,21.20
2019-03-04T15:20:41.021Z,21.20
2019-03-04T15:23:12.955Z,21.21
2019-03-04T15:25:44.869Z,20.78
2019-03-04T15:28:18.585Z,20.53
2019-03-04T15:30:52.154Z,20.49
2019-03-04T15:33:23.991Z,20.55
2019-03-04T15:35:56.618Z,20.39
2019-03-04T15:38:28.621Z,20.39
2019-03-04T15:41:00.416Z,20.38
2019-03-04T15:43:32.437Z,20.19
2019-03-04T15:46:04.330Z,20.19
2019-03-04T15:48:36.359Z,20.36
2019-03-04T15:51:07.997Z,20.24
2019-03-04T15:53:39.597Z,20.24
2019-03-04T15:56:11.301Z,20.47
2019-03-04T15:58:44.360Z,20.45
2019-03-04T16:01:16.659Z,20.59
2019-03-04T16:03:48.600Z,20.44
2019-03-04T16:06:20.584Z,20.36
2019-03-04T16:08:52.459Z,20.41
2019-03-04T16:11:23.982Z,20.31
2019-03-04T16:13:56.282Z,20.23
2019-03-04T16:16:29.288Z,20.43
2019-03-04T16:19:01.071Z,20.54
2019-03-04T16:21:32.472Z,20.54
2019-03-04T16:24:03.970Z,20.50
2019-03-04T16:26:35.939Z,20.38
2019-03-04T16:29:07.881Z,20.49
2019-03-04T16:31:39.426Z,20.51
2019-03-04T16:34:13.678Z,20.31
2019-03-04T16:36:45.191Z,20.31
2019-03-04T16:39:20.630Z,20.48
2019-03-04T16:41:52.376Z,20.48
2019-03-04T16:44:23.825Z,20.51
2019-03-04T16:46:55.805Z,20.29
2019-03-04T16:49:27.407Z,20.06
2019-03-04T16:51:59.199Z,20.03
2019-03-04T16:54:30.784Z,20.08
2019-03-04T16:57:04.547Z,19.99
2019-03-04T16:59:35.954Z,19.99
2019-03-04T17:02:07.703Z,19.99
2019-03-04T17:04:39.567Z,20.03
2019-03-04T17:07:11.810Z,19.92
2019-03-04T17:09:43.799Z,20.03
2019-03-04T17:12:15.614Z,20.03
2019-03-04T17:14:47.501Z,20.05
2019-03-04T17:17:19.189Z,19.87
2019-03-04T17:19:54.309Z,19.85
2019-03-04T17:22:25.887Z,19.88
2019-03-04T17:24:57.983Z,19.93
2019-03-04T17:27:29.744Z,19.68
2019-03-04T17:30:01.400Z,19.87
2019-03-04T17:32:33.309Z,19.87
2019-03-04T17:35:05.884Z,19.94
2019-03-04T17:37:38.621Z,19.81
2019-03-04T17:40:11.737Z,19.81
2019-03-04T17:42:43.654Z,19.77
2019-03-04T17:45:17.057Z,19.77
2019-03-04T17:47:48.725Z,19.82
2019-03-04T17:50:27.062Z,19.95
2019-03-04T17:52:59.022Z,19.93
2019-03-04T17:55:30.860Z,19.85
2019-03-04T17:58:02.519Z,19.85
2019-03-04T18:00:34.785Z,19.79
2019-03-04T18:03:06.934Z,19.70
2019-03-04T18:05:38.625Z,19.70
2019-03-04T18:08:10.588Z,19.68
2019-03-04T18:10:42.405Z,19.57
2019-03-04T18:13:14.622Z,19.55
2019-03-04T18:15:49.116Z,19.37
2019-03-04T18:18:20.585Z,19.53
2019-03-04T18:20:52.614Z,19.63
2019-03-04T18:23:24.155Z,19.53
2019-03-04T18:26:06.086Z,19.49
2019-03-04T18:28:57.723Z,19.49
2019-03-04T18:31:59.382Z,19.49
2019-03-04T18:35:17.809Z,19.43
2019-03-04T18:38:30.101Z,19.54
2019-03-04T18:41:48.417Z,19.54
2019-03-04T18:44:57.430Z,19.48
2019-03-04T18:48:10.142Z,19.58
2019-03-04T18:50:42.485Z,19.51
2019-03-04T18:53:15.036Z,19.36
2019-03-04T18:55:46.670Z,19.36
2019-03-04T18:58:18.418Z,19.41
2019-03-04T19:00:50.220Z,19.53
2019-03-04T19:03:21.990Z,19.35
2019-03-04T19:05:53.856Z,19.46
2019-03-04T19:08:26.365Z,19.39
2019-03-04T19:10:57.733Z,19.38
2019-03-04T19:13:30.999Z,19.37
2019-03-04T19:16:02.757Z,19.38
2019-03-04T19:18:36.210Z,19.38
2019-03-04T19:21:07.966Z,19.46
2019-03-04T19:23:39.716Z,19.46
2019-03-04T19:26:12.564Z,19.54
2019-03-04T19:28:43.977Z,19.40
2019-03-04T19:31:15.787Z,19.40
2019-03-04T19:33:47.484Z,19.44
2019-03-04T19:36:19.299Z,19.31
2019-03-04T19:38:50.912Z,19.40
2019-03-04T19:41:22.854Z,19.33
2019-03-04T19:43:54.564Z,19.33
2019-03-04T19:46:26.221Z,19.37
2019-03-04T19:48:58.194Z,19.37
2019-03-04T19:51:30.013Z,19.27
2019-03-04T19:54:02.001Z,19.07
2019-03-04T19:56:33.825Z,19.07
2019-03-04T19:59:05.440Z,19.14
2019-03-04T20:01:37.396Z,19.14
2019-03-04T20:04:09.049Z,19.00
2019-03-04T20:06:40.602Z,19.00
2019-03-04T20:09:12.469Z,19.19
2019-03-04T20:11:44.538Z,19.19
2019-03-04T20:14:16.224Z,19.17
2019-03-04T20:16:48.056Z,19.10
2019-03-04T20:19:19.841Z,19.10
2019-03-04T20:21:51.697Z,19.07
2019-03-04T20:24:23.480Z,19.07
2019-03-04T20:26:57.238Z,19.07
2019-03-04T20:29:29.067Z,19.04
2019-03-04T20:32:01.402Z,19.13
2019-03-04T20:34:32.874Z,19.04
2019-03-04T20:37:04.638Z,18.97
2019-03-04T20:39:36.391Z,18.86
2019-03-04T20:42:08.342Z,18.91
2019-03-04T20:44:39.944Z,18.91
2019-03-04T20:47:11.800Z,18.89
2019-03-04T20:49:43.487Z,18.98
2019-03-04T20:52:15.530Z,19.00
2019-03-04T20:54:47.162Z,19.00
2019-03-04T20:57:20.754Z,19.01
2019-03-04T20:59:52.672Z,19.01
2019-03-04T21:02:24.727Z,19.09
2019-03-04T21:04:56.307Z,18.88
2019-03-04T21:07:28.095Z,18.88
2019-03-04T21:09:59.742Z,18.88
2019-03-04T21:12:33.040Z,18.75
2019-03-04T21:15:05.073Z,18.75
2019-03-04T21:17:37.417Z,18.75
2019-03-04T21:20:09.997Z,18.62
2019-03-04T21:22:42.668Z,18.76
2019-03-04T21:25:37.657Z,18.76
2019-03-04T21:28:13.141Z,18.62
2019-03-04T21:31:25.173Z,18.75
2019-03-04T21:34:34.891Z,18.60
2019-03-04T21:37:15.443Z,18.60
2019-03-04T21:39:48.418Z,18.59
2019-03-04T21:42:31.290Z,18.56
2019-03-04T21:45:51.569Z,18.56
2019-03-04T21:48:39.286Z,18.58
2019-03-04T21:51:38.432Z,18.47
2019-03-04T21:54:10.877Z,18.51
2019-03-04T21:57:13.093Z,18.51
2019-03-04T21:59:44.855Z,18.58
2019-03-04T22:02:24.327Z,18.72
2019-03-04T22:04:56.540Z,18.60
2019-03-04T22:07:28.997Z,18.60
2019-03-04T22:10:00.854Z,18.64
2019-03-04T22:12:32.580Z,18.61
2019-03-04T22:15:03.964Z,18.61
2019-03-04T22:17:37.025Z,18.61
2019-03-04T22:20:09.789Z,18.55
2019-03-04T22:22:41.545Z,18.56
2019-03-04T22:25:13.490Z,18.56
2019-03-04T22:27:45.667Z,18.47
2019-03-04T22:30:18.491Z,18.47
2019-03-04T22:32:50.262Z,18.31
2019-03-04T22:35:22.227Z,18.49
2019-03-04T22:37:53.976Z,18.49
2019-03-04T22:40:25.793Z,18.36
2019-03-04T22:42:57.415Z,18.36
2019-03-04T22:45:29.131Z,18.36
2019-03-04T22:48:00.867Z,18.20
2019-03-04T22:50:32.379Z,18.11
2019-03-04T22:53:04.017Z,18.11
2019-03-04T22:55:37.450Z,18.19
2019-03-04T22:58:09.244Z,18.16
2019-03-04T23:01:30.032Z,18.10
2019-03-04T23:04:32.174Z,18.10
2019-03-04T23:07:12.857Z,17.99
2019-03-04T23:09:54.557Z,18.01
2019-03-04T23:12:31.465Z,18.01
2019-03-04T23:15:03.248Z,17.83
2019-03-04T23:17:35.954Z,17.83
2019-03-04T23:20:07.773Z,17.85
2019-03-04T23:22:39.152Z,18.02
2019-03-04T23:25:11.845Z,18.00
2019-03-04T23:27:43.352Z,18.00
2019-03-04T23:30:16.111Z,17.84
2019-03-04T23:32:47.581Z,17.75
2019-03-04T23:35:19.226Z,17.75
2019-03-04T23:37:50.974Z,17.76
2019-03-04T23:40:22.629Z,17.76
2019-03-04T23:42:54.464Z,17.71
2019-03-04T23:45:26.236Z,17.71
2019-03-04T23:47:57.824Z,17.62
2019-03-04T23:50:29.269Z,17.71
2019-03-04T23:53:01.623Z,17.71
2019-03-04T23:55:33.387Z,17.53
2019-03-04T23:58:05.317Z,17.53
